createdAt,value
2022-12-01T00:00:13.001Z,1009.64
2022-12-01T00:01:13.099Z,1009.63
2022-12-01T00:02:13.291Z,1009.65
2022-12-01T00:03:13.411Z,1009.65
2022-12-01T00:04:13.346Z,1009.66
2022-12-01T00:05:13.414Z,1009.67
2022-12-01T00:06:13.494Z,1009.66
2022-12-01T00:07:13.565Z,1009.69
2022-12-01T00:08:13.659Z,1009.67
2022-12-01T00:09:19.203Z,1009.66
2022-12-01T00:10:13.831Z,1009.62
2022-12-01T00:11:13.897Z,1009.66
2022-12-01T00:12:13.972Z,1009.65
2022-12-01T00:13:14.085Z,1009.62
2022-12-01T00:14:14.135Z,1009.65
2022-12-01T00:15:14.198Z,1009.64
2022-12-01T00:16:14.323Z,1009.68
2022-12-01T00:17:14.360Z,1009.64
2022-12-01T00:18:14.456Z,1009.66
2022-12-01T00:19:14.518Z,1009.68
2022-12-01T00:20:14.590Z,1009.69
2022-12-01T00:21:14.685Z,1009.67
2022-12-01T00:22:14.794Z,1009.63
2022-12-01T00:23:14.888Z,1009.69
2022-12-01T00:24:14.973Z,1009.68
2022-12-01T00:25:15.038Z,1009.66
2022-12-01T00:26:15.143Z,1009.63
2022-12-01T00:27:15.220Z,1009.62
2022-12-01T00:28:15.339Z,1009.63
2022-12-01T00:29:15.418Z,1009.63
2022-12-01T00:30:15.486Z,1009.67
2022-12-01T00:31:15.607Z,1009.69
2022-12-01T00:32:15.733Z,1009.63
2022-12-01T00:33:15.761Z,1009.66
2022-12-01T00:34:15.838Z,1009.64
2022-12-01T00:35:15.915Z,1009.65
2022-12-01T00:36:15.985Z,1009.64
2022-12-01T00:37:16.058Z,1009.64
2022-12-01T00:38:16.176Z,1009.63
2022-12-01T00:39:16.330Z,1009.62
2022-12-01T00:40:16.284Z,1009.60
2022-12-01T00:41:16.364Z,1009.62
2022-12-01T00:42:16.460Z,1009.68
2022-12-01T00:43:16.548Z,1009.61
2022-12-01T00:44:16.620Z,1009.64
2022-12-01T00:45:16.699Z,1009.64
2022-12-01T00:46:16.897Z,1009.61
2022-12-01T00:47:16.880Z,1009.60
2022-12-01T00:48:16.996Z,1009.65
2022-12-01T00:49:17.078Z,1009.66
2022-12-01T00:50:17.185Z,1009.65
2022-12-01T00:51:17.261Z,1009.64
2022-12-01T00:52:17.375Z,1009.66
2022-12-01T00:53:17.468Z,1009.64
2022-12-01T00:54:17.544Z,1009.65
2022-12-01T00:55:17.617Z,1009.67
2022-12-01T00:56:17.701Z,1009.65
2022-12-01T00:57:17.782Z,1009.68
2022-12-01T00:58:17.861Z,1009.68
2022-12-01T00:59:17.934Z,1009.67
2022-12-01T01:00:18.032Z,1009.70
2022-12-01T01:01:18.159Z,1009.68
2022-12-01T01:02:18.261Z,1009.67
2022-12-01T01:03:18.296Z,1009.66
2022-12-01T01:04:18.366Z,1009.67
2022-12-01T01:05:18.442Z,1009.67
2022-12-01T01:06:18.545Z,1009.67
2022-12-01T01:07:18.633Z,1009.66
2022-12-01T01:08:19.024Z,1009.67
2022-12-01T01:09:18.747Z,1009.68
2022-12-01T01:10:18.857Z,1009.69
2022-12-01T01:11:18.929Z,1009.69
2022-12-01T01:12:19.034Z,1009.66
2022-12-01T01:13:19.143Z,1009.71
2022-12-01T01:14:19.209Z,1009.77
2022-12-01T01:15:19.280Z,1009.79
2022-12-01T01:16:19.412Z,1009.82
2022-12-01T01:17:19.465Z,1009.78
2022-12-01T01:18:19.542Z,1009.82
2022-12-01T01:19:19.802Z,1009.86
2022-12-01T01:20:19.707Z,1009.87
2022-12-01T01:21:19.790Z,1009.88
2022-12-01T01:22:19.882Z,1009.85
2022-12-01T01:23:19.970Z,1009.87
2022-12-01T01:24:20.041Z,1009.88
2022-12-01T01:25:20.124Z,1009.89
2022-12-01T01:26:20.210Z,1009.89
2022-12-01T01:27:20.284Z,1009.89
2022-12-01T01:28:20.380Z,1009.88
2022-12-01T01:29:20.414Z,1009.91
2022-12-01T01:30:20.516Z,1009.89
2022-12-01T01:31:20.717Z,1009.93
2022-12-01T01:32:20.674Z,1009.97
2022-12-01T01:33:20.762Z,1009.91
2022-12-01T01:34:20.834Z,1009.94
2022-12-01T01:35:20.927Z,1009.94
2022-12-01T01:36:20.999Z,1009.91
2022-12-01T01:37:21.074Z,1009.91
2022-12-01T01:38:21.199Z,1009.90
2022-12-01T01:39:21.238Z,1009.89
2022-12-01T01:40:21.305Z,1009.93
2022-12-01T01:41:21.377Z,1009.89
2022-12-01T01:42:21.470Z,1009.92
2022-12-01T01:43:21.544Z,1009.91
2022-12-01T01:44:21.620Z,1009.91
2022-12-01T01:45:21.689Z,1009.92
2022-12-01T01:46:21.901Z,1009.92
2022-12-01T01:47:21.879Z,1009.90
2022-12-01T01:48:22.008Z,1009.91
2022-12-01T01:49:22.048Z,1009.88
2022-12-01T01:50:22.138Z,1009.90
2022-12-01T01:51:22.211Z,1009.91
2022-12-01T01:52:22.300Z,1009.95
2022-12-01T01:53:22.393Z,1009.96
2022-12-01T01:54:22.465Z,1009.93
2022-12-01T01:55:22.541Z,1009.98
2022-12-01T01:56:22.634Z,1009.95
2022-12-01T01:57:22.721Z,1009.93
2022-12-01T01:58:22.843Z,1009.94
2022-12-01T01:59:22.883Z,1009.94
2022-12-01T02:00:22.982Z,1009.92
2022-12-01T02:01:23.119Z,1009.90
2022-12-01T02:02:23.189Z,1009.91
2022-12-01T02:03:23.240Z,1009.95
2022-12-01T02:04:23.332Z,1009.91
2022-12-01T02:05:23.401Z,1009.90
2022-12-01T02:06:23.495Z,1009.89
2022-12-01T02:07:23.601Z,1009.89
2022-12-01T02:08:23.662Z,1009.88
2022-12-01T02:09:23.701Z,1009.90
2022-12-01T02:10:23.783Z,1009.91
2022-12-01T02:11:23.860Z,1009.90
2022-12-01T02:12:23.981Z,1009.93
2022-12-01T02:13:24.041Z,1009.91
2022-12-01T02:14:24.108Z,1009.93
2022-12-01T02:15:24.186Z,1009.95
2022-12-01T02:16:24.339Z,1009.95
2022-12-01T02:17:24.392Z,1009.94
2022-12-01T02:18:24.476Z,1009.94
2022-12-01T02:19:24.510Z,1009.95
2022-12-01T02:20:24.612Z,1009.95
2022-12-01T02:21:24.696Z,1009.91
2022-12-01T02:22:24.764Z,1009.94
2022-12-01T02:23:24.855Z,1009.96
2022-12-01T02:24:24.931Z,1009.89
2022-12-01T02:25:25.005Z,1009.92
2022-12-01T02:26:25.098Z,1009.89
2022-12-01T02:27:25.177Z,1009.89
2022-12-01T02:28:25.287Z,1009.92
2022-12-01T02:29:25.338Z,1009.86
2022-12-01T02:30:25.481Z,1009.89
2022-12-01T02:31:25.589Z,1009.88
2022-12-01T02:32:25.616Z,1009.84
2022-12-01T02:33:25.705Z,1009.88
2022-12-01T02:34:25.778Z,1009.89
2022-12-01T02:35:25.855Z,1009.88
2022-12-01T02:36:25.961Z,1009.86
2022-12-01T02:37:26.047Z,1009.85
2022-12-01T02:38:26.171Z,1009.87
2022-12-01T02:39:26.212Z,1009.83
2022-12-01T02:40:26.306Z,1009.84
2022-12-01T02:41:26.380Z,1009.87
2022-12-01T02:42:26.487Z,1009.86
2022-12-01T02:43:26.583Z,1009.87
2022-12-01T02:44:26.665Z,1009.90
2022-12-01T02:45:26.742Z,1009.89
2022-12-01T02:46:26.911Z,1009.90
2022-12-01T02:47:26.905Z,1009.88
2022-12-01T02:48:27.025Z,1009.88
2022-12-01T02:49:27.063Z,1009.84
2022-12-01T02:50:27.167Z,1009.87
2022-12-01T02:51:27.233Z,1009.85
2022-12-01T02:52:27.316Z,1009.87
2022-12-01T02:53:27.388Z,1009.87
2022-12-01T02:54:27.482Z,1009.84
2022-12-01T02:55:27.554Z,1009.88
2022-12-01T02:56:27.662Z,1009.89
2022-12-01T02:57:27.741Z,1009.88
2022-12-01T02:58:27.837Z,1009.88
2022-12-01T02:59:27.872Z,1009.86
2022-12-01T03:00:27.978Z,1009.85
2022-12-01T03:01:28.121Z,1009.84
2022-12-01T03:02:28.175Z,1009.81
2022-12-01T03:03:28.196Z,1009.81
2022-12-01T03:04:28.273Z,1009.83
2022-12-01T03:05:28.359Z,1009.84
2022-12-01T03:06:28.420Z,1009.86
2022-12-01T03:07:28.526Z,1009.85
2022-12-01T03:08:28.593Z,1009.83
2022-12-01T03:09:28.655Z,1009.83
2022-12-01T03:10:28.745Z,1009.82
2022-12-01T03:11:28.820Z,1009.80
2022-12-01T03:12:28.931Z,1009.83
2022-12-01T03:13:29.023Z,1009.82
2022-12-01T03:14:29.088Z,1009.77
2022-12-01T03:15:29.168Z,1009.77
2022-12-01T03:16:29.303Z,1009.80
2022-12-01T03:17:29.306Z,1009.76
2022-12-01T03:18:29.431Z,1009.75
2022-12-01T03:19:29.471Z,1009.76
2022-12-01T03:20:29.539Z,1009.76
2022-12-01T03:21:29.598Z,1009.79
2022-12-01T03:22:29.703Z,1009.76
2022-12-01T03:23:29.798Z,1009.75
2022-12-01T03:24:29.869Z,1009.73
2022-12-01T03:25:29.948Z,1009.74
2022-12-01T03:26:30.040Z,1009.73
2022-12-01T03:27:30.117Z,1009.74
2022-12-01T03:28:30.226Z,1009.76
2022-12-01T03:29:30.266Z,1009.70
2022-12-01T03:30:30.365Z,1009.72
2022-12-01T03:31:30.482Z,1009.69
2022-12-01T03:32:30.534Z,1009.72
2022-12-01T03:33:30.627Z,1009.75
2022-12-01T03:34:30.700Z,1009.72
2022-12-01T03:35:30.778Z,1009.72
2022-12-01T03:36:30.893Z,1009.72
2022-12-01T03:37:30.967Z,1009.70
2022-12-01T03:38:31.051Z,1009.72
2022-12-01T03:39:31.094Z,1009.73
2022-12-01T03:40:31.177Z,1009.73
2022-12-01T03:41:31.262Z,1009.72
2022-12-01T03:42:31.351Z,1009.73
2022-12-01T03:43:31.442Z,1009.73
2022-12-01T03:44:31.513Z,1009.74
2022-12-01T03:45:31.591Z,1009.73
2022-12-01T03:46:31.756Z,1009.72
2022-12-01T03:47:31.749Z,1009.70
2022-12-01T03:48:31.869Z,1009.68
2022-12-01T03:49:31.927Z,1009.70
2022-12-01T03:50:32.036Z,1009.73
2022-12-01T03:51:32.114Z,1009.72
2022-12-01T03:52:32.237Z,1009.72
2022-12-01T03:53:32.295Z,1009.72
2022-12-01T03:54:32.369Z,1009.77
2022-12-01T03:55:32.450Z,1009.74
2022-12-01T03:56:32.543Z,1009.75
2022-12-01T03:57:32.619Z,1009.75
2022-12-01T03:58:32.753Z,1009.78
2022-12-01T03:59:32.799Z,1009.75
2022-12-01T04:00:32.868Z,1009.74
2022-12-01T04:01:33.053Z,1009.76
2022-12-01T04:02:33.082Z,1009.77
2022-12-01T04:03:33.129Z,1009.80
2022-12-01T04:04:33.177Z,1009.77
2022-12-01T04:05:33.258Z,1009.80
2022-12-01T04:06:33.344Z,1009.80
2022-12-01T04:07:33.447Z,1009.81
2022-12-01T04:08:33.544Z,1009.80
2022-12-01T04:09:33.586Z,1009.83
2022-12-01T04:10:33.676Z,1009.83
2022-12-01T04:11:33.750Z,1009.83
2022-12-01T04:12:33.822Z,1009.83
2022-12-01T04:13:33.935Z,1009.84
2022-12-01T04:14:33.986Z,1009.81
2022-12-01T04:15:34.066Z,1009.80
2022-12-01T04:16:34.223Z,1009.79
2022-12-01T04:17:34.241Z,1009.80
2022-12-01T04:18:34.367Z,1009.80
2022-12-01T04:19:34.404Z,1009.77
2022-12-01T04:20:34.510Z,1009.77
2022-12-01T04:21:34.573Z,1009.80
2022-12-01T04:22:34.671Z,1009.75
2022-12-01T04:23:34.762Z,1009.78
2022-12-01T04:24:34.837Z,1009.76
2022-12-01T04:25:34.914Z,1009.79
2022-12-01T04:26:35.006Z,1009.80
2022-12-01T04:27:35.095Z,1009.79
2022-12-01T04:28:35.206Z,1009.77
2022-12-01T04:29:35.263Z,1009.77
2022-12-01T04:30:35.362Z,1009.79
2022-12-01T04:31:35.525Z,1009.72
2022-12-01T04:32:35.537Z,1009.77
2022-12-01T04:33:35.612Z,1009.75
2022-12-01T04:34:35.688Z,1009.73
2022-12-01T04:35:35.774Z,1009.73
2022-12-01T04:36:35.874Z,1009.72
2022-12-01T04:37:35.964Z,1009.71
2022-12-01T04:38:36.047Z,1009.73
2022-12-01T04:39:36.119Z,1009.71
2022-12-01T04:40:36.223Z,1009.68
2022-12-01T04:41:36.297Z,1009.73
2022-12-01T04:42:36.374Z,1009.71
2022-12-01T04:43:36.508Z,1009.72
2022-12-01T04:44:36.541Z,1009.73
2022-12-01T04:45:36.654Z,1009.70
2022-12-01T04:46:36.745Z,1009.68
2022-12-01T04:47:36.824Z,1009.69
2022-12-01T04:48:36.885Z,1009.67
2022-12-01T04:49:36.957Z,1009.68
2022-12-01T04:50:37.031Z,1009.69
2022-12-01T04:51:37.149Z,1009.70
2022-12-01T04:52:37.223Z,1009.72
2022-12-01T04:53:37.310Z,1009.69
2022-12-01T04:54:37.369Z,1009.70
2022-12-01T04:55:37.431Z,1009.72
2022-12-01T04:56:37.509Z,1009.72
2022-12-01T04:57:37.614Z,1009.73
2022-12-01T04:58:37.714Z,1009.74
2022-12-01T04:59:37.792Z,1009.76
2022-12-01T05:00:37.938Z,1009.78
2022-12-01T05:01:38.027Z,1009.77
2022-12-01T05:02:38.027Z,1009.76
2022-12-01T05:03:38.145Z,1009.77
2022-12-01T05:04:38.175Z,1009.79
2022-12-01T05:05:38.280Z,1009.74
2022-12-01T05:06:38.362Z,1009.78
2022-12-01T05:07:38.493Z,1009.78
2022-12-01T05:08:38.522Z,1009.81
2022-12-01T05:09:38.592Z,1009.77
2022-12-01T05:10:38.668Z,1009.80
2022-12-01T05:11:38.759Z,1009.84
2022-12-01T05:12:38.838Z,1009.82
2022-12-01T05:13:38.975Z,1009.78
2022-12-01T05:14:39.015Z,1009.85
2022-12-01T05:15:39.119Z,1009.84
2022-12-01T05:16:39.303Z,1009.84
2022-12-01T05:17:39.282Z,1009.82
2022-12-01T05:18:39.514Z,1009.79
2022-12-01T05:19:39.432Z,1009.82
2022-12-01T05:20:39.509Z,1009.80
2022-12-01T05:21:39.591Z,1009.80
2022-12-01T05:23:04.360Z,1009.83
2022-12-01T05:23:39.780Z,1009.77
2022-12-01T05:24:39.818Z,1009.76
2022-12-01T05:25:39.928Z,1009.78
2022-12-01T05:26:40.009Z,1009.79
2022-12-01T05:27:40.102Z,1009.82
2022-12-01T05:28:40.197Z,1009.77
2022-12-01T05:29:40.269Z,1009.81
2022-12-01T05:30:40.332Z,1009.81
2022-12-01T05:31:40.486Z,1009.81
2022-12-01T05:32:40.503Z,1009.80
2022-12-01T05:33:40.610Z,1009.82
2022-12-01T05:34:40.656Z,1009.80
2022-12-01T05:35:40.746Z,1009.76
2022-12-01T05:36:40.806Z,1009.78
2022-12-01T05:37:40.893Z,1009.75
2022-12-01T05:38:40.985Z,1009.75
2022-12-01T05:39:41.072Z,1009.75
2022-12-01T05:40:41.169Z,1009.80
2022-12-01T05:41:41.256Z,1009.80
2022-12-01T05:42:41.335Z,1009.80
2022-12-01T05:43:41.466Z,1009.77
2022-12-01T05:44:41.517Z,1009.78
2022-12-01T05:45:41.720Z,1009.78
2022-12-01T05:46:41.690Z,1009.78
2022-12-01T05:47:41.794Z,1009.77
2022-12-01T05:48:41.889Z,1009.83
2022-12-01T05:49:41.972Z,1009.79
2022-12-01T05:50:42.053Z,1009.79
2022-12-01T05:51:42.135Z,1009.84
2022-12-01T05:52:42.219Z,1009.82
2022-12-01T05:53:42.324Z,1009.84
2022-12-01T05:54:42.398Z,1009.87
2022-12-01T05:55:42.504Z,1009.90
2022-12-01T05:56:42.594Z,1009.90
2022-12-01T05:57:42.652Z,1009.91
2022-12-01T05:58:42.745Z,1009.90
2022-12-01T05:59:42.820Z,1009.91
2022-12-01T06:00:46.039Z,1009.87
2022-12-01T06:01:43.088Z,1009.93
2022-12-01T06:02:43.068Z,1009.91
2022-12-01T06:03:43.197Z,1009.93
2022-12-01T06:04:43.218Z,1009.94
2022-12-01T06:05:43.316Z,1009.91
2022-12-01T06:06:43.400Z,1009.96
2022-12-01T06:07:43.558Z,1009.97
2022-12-01T06:08:43.595Z,1009.93
2022-12-01T06:09:43.662Z,1009.98
2022-12-01T06:10:43.741Z,1010.00
2022-12-01T06:11:43.807Z,1010.01
2022-12-01T06:12:43.901Z,1009.98
2022-12-01T06:13:44.008Z,1010.00
2022-12-01T06:14:44.032Z,1010.00
2022-12-01T06:15:44.138Z,1010.01
2022-12-01T06:16:44.215Z,1009.99
2022-12-01T06:17:44.314Z,1010.04
2022-12-01T06:18:44.423Z,1009.97
2022-12-01T06:19:44.497Z,1009.96
2022-12-01T06:20:44.574Z,1009.96
2022-12-01T06:21:44.661Z,1009.94
2022-12-01T06:22:44.735Z,1009.99
2022-12-01T06:23:44.851Z,1009.99
2022-12-01T06:24:44.895Z,1010.02
2022-12-01T06:25:45.002Z,1010.01
2022-12-01T06:26:45.080Z,1010.00
2022-12-01T06:27:45.195Z,1009.99
2022-12-01T06:28:45.285Z,1010.03
2022-12-01T06:29:45.359Z,1009.99
2022-12-01T06:30:45.442Z,1010.02
2022-12-01T06:31:45.555Z,1010.03
2022-12-01T06:32:45.577Z,1010.08
2022-12-01T06:33:45.692Z,1010.05
2022-12-01T06:34:45.752Z,1010.11
2022-12-01T06:35:45.858Z,1010.11
2022-12-01T06:36:45.934Z,1010.14
2022-12-01T06:37:46.030Z,1010.13
2022-12-01T06:38:46.118Z,1010.13
2022-12-01T06:39:46.321Z,1010.14
2022-12-01T06:40:46.257Z,1010.12
2022-12-01T06:41:46.344Z,1010.10
2022-12-01T06:42:46.429Z,1010.09
2022-12-01T06:43:46.536Z,1010.11
2022-12-01T06:44:46.583Z,1010.13
2022-12-01T06:45:46.697Z,1010.13
2022-12-01T06:46:46.748Z,1010.09
2022-12-01T06:47:46.848Z,1010.12
2022-12-01T06:48:46.936Z,1010.14
2022-12-01T06:49:47.524Z,1010.18
2022-12-01T06:50:47.084Z,1010.15
2022-12-01T06:51:47.190Z,1010.16
2022-12-01T06:52:47.247Z,1010.19
2022-12-01T06:53:47.354Z,1010.17
2022-12-01T06:54:47.393Z,1010.20
2022-12-01T06:55:47.492Z,1010.17
2022-12-01T06:56:47.553Z,1010.22
2022-12-01T06:57:47.635Z,1010.21
2022-12-01T06:58:47.746Z,1010.20
2022-12-01T06:59:48.034Z,1010.22
2022-12-01T07:00:52.032Z,1010.24
2022-12-01T07:01:47.978Z,1010.23
2022-12-01T07:02:48.078Z,1010.26
2022-12-01T07:03:48.151Z,1010.26
2022-12-01T07:04:48.185Z,1010.30
2022-12-01T07:05:48.274Z,1010.31
2022-12-01T07:06:48.322Z,1010.35
2022-12-01T07:07:48.518Z,1010.36
2022-12-01T07:08:48.516Z,1010.39
2022-12-01T07:09:48.893Z,1010.38
2022-12-01T07:10:48.647Z,1010.43
2022-12-01T07:11:48.736Z,1010.41
2022-12-01T07:12:48.791Z,1010.41
2022-12-01T07:13:48.922Z,1010.42
2022-12-01T07:14:48.958Z,1010.44
2022-12-01T07:15:49.062Z,1010.45
2022-12-01T07:16:49.259Z,1010.43
2022-12-01T07:17:49.237Z,1010.46
2022-12-01T07:18:49.328Z,1010.45
2022-12-01T07:19:49.780Z,1010.45
2022-12-01T07:20:49.480Z,1010.47
2022-12-01T07:21:49.585Z,1010.50
2022-12-01T07:22:49.663Z,1010.54
2022-12-01T07:23:49.792Z,1010.52
2022-12-01T07:24:49.834Z,1010.52
2022-12-01T07:25:49.933Z,1010.55
2022-12-01T07:26:50.014Z,1010.52
2022-12-01T07:27:50.113Z,1010.59
2022-12-01T07:28:50.196Z,1010.60
2022-12-01T07:29:50.810Z,1010.58
2022-12-01T07:30:50.396Z,1010.57
2022-12-01T07:31:50.442Z,1010.58
2022-12-01T07:32:50.520Z,1010.56
2022-12-01T07:33:50.629Z,1010.57
2022-12-01T07:34:50.669Z,1010.54
2022-12-01T07:35:50.775Z,1010.54
2022-12-01T07:36:50.855Z,1010.53
2022-12-01T07:37:50.924Z,1010.54
2022-12-01T07:38:51.015Z,1010.47
2022-12-01T07:39:51.368Z,1010.49
2022-12-01T07:40:51.155Z,1010.52
2022-12-01T07:41:51.261Z,1010.52
2022-12-01T07:42:51.335Z,1010.53
2022-12-01T07:43:51.466Z,1010.54
2022-12-01T07:44:51.509Z,1010.53
2022-12-01T07:45:51.654Z,1010.55
2022-12-01T07:46:51.690Z,1010.54
2022-12-01T07:47:51.795Z,1010.52
2022-12-01T07:48:51.906Z,1010.55
2022-12-01T07:49:52.068Z,1010.54
2022-12-01T07:50:52.028Z,1010.57
2022-12-01T07:51:52.135Z,1010.55
2022-12-01T07:52:52.218Z,1010.58
2022-12-01T07:53:52.303Z,1010.58
2022-12-01T07:54:52.357Z,1010.59
2022-12-01T07:55:52.429Z,1010.59
2022-12-01T07:56:52.508Z,1010.59
2022-12-01T07:57:52.617Z,1010.57
2022-12-01T07:58:52.712Z,1010.61
2022-12-01T07:59:52.780Z,1010.62
2022-12-01T08:00:52.856Z,1010.59
2022-12-01T08:01:53.038Z,1010.61
2022-12-01T08:02:53.075Z,1010.59
2022-12-01T08:03:53.150Z,1010.64
2022-12-01T08:04:53.190Z,1010.63
2022-12-01T08:05:53.303Z,1010.68
2022-12-01T08:06:53.375Z,1010.64
2022-12-01T08:07:53.533Z,1010.66
2022-12-01T08:08:53.572Z,1010.64
2022-12-01T08:09:53.647Z,1010.64
2022-12-01T08:10:53.728Z,1010.65
2022-12-01T08:11:53.843Z,1010.66
2022-12-01T08:12:53.928Z,1010.69
2022-12-01T08:13:53.998Z,1010.66
2022-12-01T08:14:54.039Z,1010.65
2022-12-01T08:15:54.182Z,1010.65
2022-12-01T08:16:54.184Z,1010.65
2022-12-01T08:17:54.291Z,1010.61
2022-12-01T08:18:54.383Z,1010.65
2022-12-01T08:19:54.456Z,1010.64
2022-12-01T08:20:54.531Z,1010.69
2022-12-01T08:21:54.635Z,1010.71
2022-12-01T08:22:54.723Z,1010.70
2022-12-01T08:23:54.849Z,1010.72
2022-12-01T08:24:54.892Z,1010.68
2022-12-01T08:25:54.966Z,1010.68
2022-12-01T08:26:55.039Z,1010.71
2022-12-01T08:27:55.176Z,1010.71
2022-12-01T08:28:55.228Z,1010.73
2022-12-01T08:29:55.307Z,1010.73
2022-12-01T08:30:55.436Z,1010.74
2022-12-01T08:31:55.471Z,1010.76
2022-12-01T08:32:55.554Z,1010.75
2022-12-01T08:33:55.668Z,1010.67
2022-12-01T08:34:55.713Z,1010.71
2022-12-01T08:35:55.779Z,1010.70
2022-12-01T08:36:55.865Z,1010.75
2022-12-01T08:37:55.931Z,1010.72
2022-12-01T08:38:56.056Z,1010.70
2022-12-01T08:39:56.110Z,1010.75
2022-12-01T08:40:56.193Z,1010.79
2022-12-01T08:41:56.285Z,1010.78
2022-12-01T08:42:56.386Z,1010.78
2022-12-01T08:43:58.331Z,1010.79
2022-12-01T08:44:56.600Z,1010.81
2022-12-01T08:45:56.629Z,1010.79
2022-12-01T08:46:56.774Z,1010.81
2022-12-01T08:47:56.804Z,1010.83
2022-12-01T08:48:56.897Z,1010.81
2022-12-01T08:49:56.970Z,1010.82
2022-12-01T08:50:57.049Z,1010.81
2022-12-01T08:51:57.158Z,1010.74
2022-12-01T08:52:57.227Z,1010.80
2022-12-01T08:53:57.308Z,1010.79
2022-12-01T08:54:57.384Z,1010.78
2022-12-01T08:55:57.457Z,1010.80
2022-12-01T08:56:57.529Z,1010.78
2022-12-01T08:57:57.603Z,1010.81
2022-12-01T08:58:57.720Z,1010.77
2022-12-01T08:59:57.757Z,1010.82
2022-12-01T09:00:57.848Z,1010.81
2022-12-01T09:02:00.426Z,1010.82
2022-12-01T09:02:58.125Z,1010.79
2022-12-01T09:03:58.105Z,1010.84
2022-12-01T09:04:58.180Z,1010.83
2022-12-01T09:05:58.243Z,1010.86
2022-12-01T09:06:58.345Z,1010.85
2022-12-01T09:07:58.501Z,1010.89
2022-12-01T09:08:58.512Z,1010.89
2022-12-01T09:09:58.577Z,1010.88
2022-12-01T09:10:58.684Z,1010.84
2022-12-01T09:11:58.775Z,1010.85
2022-12-01T09:12:58.861Z,1010.86
2022-12-01T09:13:58.952Z,1010.88
2022-12-01T09:14:59.027Z,1010.92
2022-12-01T09:15:59.153Z,1010.87
2022-12-01T09:16:59.205Z,1010.88
2022-12-01T09:17:59.252Z,1010.88
2022-12-01T09:18:59.365Z,1010.86
2022-12-01T09:19:59.440Z,1010.86
2022-12-01T09:20:59.571Z,1010.88
2022-12-01T09:21:59.609Z,1010.88
2022-12-01T09:22:59.698Z,1010.89
2022-12-01T09:23:59.792Z,1010.90
2022-12-01T09:24:59.864Z,1010.89
2022-12-01T09:25:59.935Z,1010.92
2022-12-01T09:27:00.038Z,1010.92
2022-12-01T09:28:00.117Z,1010.87
2022-12-01T09:29:00.243Z,1010.88
2022-12-01T09:30:00.299Z,1010.90
2022-12-01T09:31:00.460Z,1010.94
2022-12-01T09:32:00.493Z,1010.94
2022-12-01T09:33:00.548Z,1010.91
2022-12-01T09:34:00.648Z,1010.96
2022-12-01T09:35:00.715Z,1010.94
2022-12-01T09:36:00.793Z,1010.92
2022-12-01T09:37:00.904Z,1010.95
2022-12-01T09:38:00.981Z,1010.89
2022-12-01T09:39:01.102Z,1010.90
2022-12-01T09:40:01.175Z,1010.94
2022-12-01T09:41:01.284Z,1010.92
2022-12-01T09:42:03.882Z,1010.90
2022-12-01T09:43:01.463Z,1010.90
2022-12-01T09:44:01.589Z,1010.91
2022-12-01T09:45:01.621Z,1010.89
2022-12-01T09:46:01.688Z,1010.88
2022-12-01T09:47:01.810Z,1010.88
2022-12-01T09:48:01.876Z,1010.87
2022-12-01T09:49:01.959Z,1010.83
2022-12-01T09:50:02.006Z,1010.88
2022-12-01T09:51:02.071Z,1010.91
2022-12-01T09:52:02.148Z,1010.87
2022-12-01T09:53:02.256Z,1010.87
2022-12-01T09:54:02.346Z,1010.86
2022-12-01T09:55:02.411Z,1010.85
2022-12-01T09:56:08.545Z,1010.83
2022-12-01T09:57:02.571Z,1010.84
2022-12-01T09:58:02.645Z,1010.82
2022-12-01T09:59:02.754Z,1010.85
2022-12-01T10:00:02.797Z,1010.85
2022-12-01T10:01:02.885Z,1010.82
2022-12-01T10:02:03.005Z,1010.87
2022-12-01T10:03:03.057Z,1010.84
2022-12-01T10:04:03.130Z,1010.84
2022-12-01T10:05:03.249Z,1010.87
2022-12-01T10:06:26.733Z,1010.85
2022-12-01T10:07:03.390Z,1010.83
2022-12-01T10:08:03.537Z,1010.82
2022-12-01T10:09:03.595Z,1010.80
2022-12-01T10:10:03.623Z,1010.80
2022-12-01T10:11:03.733Z,1010.77
2022-12-01T10:12:03.808Z,1010.78
2022-12-01T10:13:03.882Z,1010.76
2022-12-01T10:14:04.036Z,1010.74
2022-12-01T10:15:04.051Z,1010.74
2022-12-01T10:16:04.255Z,1010.76
2022-12-01T10:17:04.232Z,1010.74
2022-12-01T10:18:04.335Z,1010.75
2022-12-01T10:19:04.421Z,1010.72
2022-12-01T10:20:04.468Z,1010.74
2022-12-01T10:21:04.565Z,1010.68
2022-12-01T10:22:04.641Z,1010.66
2022-12-01T10:23:04.750Z,1010.69
2022-12-01T10:24:04.840Z,1010.67
2022-12-01T10:25:04.923Z,1010.67
2022-12-01T10:26:05.004Z,1010.64
2022-12-01T10:27:05.097Z,1010.67
2022-12-01T10:28:05.160Z,1010.62
2022-12-01T10:29:05.282Z,1010.61
2022-12-01T10:30:05.328Z,1010.62
2022-12-01T10:31:05.501Z,1010.65
2022-12-01T10:32:05.470Z,1010.60
2022-12-01T10:33:05.543Z,1010.61
2022-12-01T10:34:05.647Z,1010.61
2022-12-01T10:35:05.711Z,1010.61
2022-12-01T10:36:05.788Z,1010.57
2022-12-01T10:37:05.859Z,1010.58
2022-12-01T10:38:05.947Z,1010.58
2022-12-01T10:39:06.029Z,1010.54
2022-12-01T10:40:06.089Z,1010.57
2022-12-01T10:41:06.163Z,1010.55
2022-12-01T10:42:06.270Z,1010.59
2022-12-01T10:43:06.349Z,1010.57
2022-12-01T10:44:06.440Z,1010.54
2022-12-01T10:45:06.506Z,1010.61
2022-12-01T10:46:06.632Z,1010.57
2022-12-01T10:47:06.639Z,1010.54
2022-12-01T10:48:06.722Z,1010.57
2022-12-01T10:49:06.812Z,1010.49
2022-12-01T10:50:06.892Z,1010.54
2022-12-01T10:51:06.964Z,1010.54
2022-12-01T10:52:07.046Z,1010.50
2022-12-01T10:53:07.115Z,1010.51
2022-12-01T10:54:07.229Z,1010.54
2022-12-01T10:55:07.271Z,1010.56
2022-12-01T10:56:07.376Z,1010.57
2022-12-01T10:57:07.460Z,1010.56
2022-12-01T10:58:09.412Z,1010.57
2022-12-01T10:59:07.623Z,1010.56
2022-12-01T11:00:07.700Z,1010.53
2022-12-01T11:01:07.822Z,1010.54
2022-12-01T11:02:08.018Z,1010.59
2022-12-01T11:03:08.157Z,1010.54
2022-12-01T11:04:08.011Z,1010.56
2022-12-01T11:05:08.073Z,1010.53
2022-12-01T11:06:08.151Z,1010.51
2022-12-01T11:07:08.223Z,1010.48
2022-12-01T11:08:08.348Z,1010.53
2022-12-01T11:09:08.473Z,1010.53
2022-12-01T11:10:08.471Z,1010.51
2022-12-01T11:11:08.578Z,1010.47
2022-12-01T11:12:08.651Z,1010.47
2022-12-01T11:13:08.759Z,1010.48
2022-12-01T11:14:08.847Z,1010.43
2022-12-01T11:15:08.918Z,1010.44
2022-12-01T11:16:09.018Z,1010.42
2022-12-01T11:17:09.082Z,1010.40
2022-12-01T11:18:09.161Z,1010.41
2022-12-01T11:19:09.329Z,1010.39
2022-12-01T11:20:09.339Z,1010.38
2022-12-01T11:21:09.374Z,1010.37
2022-12-01T11:22:09.452Z,1010.36
2022-12-01T11:23:09.538Z,1010.38
2022-12-01T11:24:09.625Z,1010.36
2022-12-01T11:25:09.697Z,1010.35
2022-12-01T11:26:09.779Z,1010.37
2022-12-01T11:27:09.879Z,1010.33
2022-12-01T11:28:09.963Z,1010.33
2022-12-01T11:29:10.057Z,1010.32
2022-12-01T11:30:10.108Z,1010.34
2022-12-01T11:31:10.175Z,1010.35
2022-12-01T11:32:10.348Z,1010.34
2022-12-01T11:33:10.353Z,1010.34
2022-12-01T11:34:10.454Z,1010.32
2022-12-01T11:35:10.509Z,1010.32
2022-12-01T11:36:15.888Z,1010.31
2022-12-01T11:37:10.675Z,1010.33
2022-12-01T11:38:29.202Z,1010.36
2022-12-01T11:39:10.873Z,1010.32
2022-12-01T11:40:10.932Z,1010.31
2022-12-01T11:41:10.987Z,1010.33
2022-12-01T11:42:11.057Z,1010.34
2022-12-01T11:43:11.168Z,1010.33
2022-12-01T11:44:28.557Z,1010.31
2022-12-01T11:45:11.317Z,1010.27
2022-12-01T11:46:11.482Z,1010.30
2022-12-01T11:47:22.615Z,1010.27
2022-12-01T11:48:11.550Z,1010.28
2022-12-01T11:49:11.646Z,1010.28
2022-12-01T11:50:11.686Z,1010.28
2022-12-01T11:51:11.764Z,1010.27
2022-12-01T11:52:11.831Z,1010.27
2022-12-01T11:53:11.915Z,1010.27
2022-12-01T11:54:12.004Z,1010.27
2022-12-01T11:55:12.086Z,1010.27
2022-12-01T11:56:12.163Z,1010.28
2022-12-01T11:57:33.130Z,1010.29
2022-12-01T11:58:12.306Z,1010.24
2022-12-01T11:59:12.417Z,1010.24
2022-12-01T12:00:12.463Z,1010.24
2022-12-01T12:01:16.365Z,1010.25
2022-12-01T12:02:12.739Z,1010.25
2022-12-01T12:03:12.755Z,1010.23
2022-12-01T12:04:12.802Z,1010.25
2022-12-01T12:05:12.990Z,1010.25
2022-12-01T12:06:39.120Z,1010.22